sensor_id;sensor_type;location;lat;lon;timestamp;pressure;altitude;pressure_sealevel;temperature;humidity
75089;BME280;63673;49.928;8.150;2022-12-18T00:00:46;1003.93;;;-8.23;100
75089;BME280;63673;49.928;8.150;2022-12-18T00:01:48;1003.94;;;-8.26;100
75089;BME280;63673;49.928;8.150;2022-12-18T00:02:50;1003.95;;;-8.28;100
75089;BME280;63673;49.928;8.150;2022-12-18T00:03:52;1003.87;;;-8.31;100
75089;BME280;63673;49.928;8.150;2022-12-18T00:04:53;1003.97;;;-8.32;100
75089;BME280;63673;49.928;8.150;2022-12-18T00:05:55;1004.02;;;-8.35;100
75089;BME280;63673;49.928;8.150;2022-12-18T00:06:57;1003.99;;;-8.33;100
75089;BME280;63673;49.928;8.150;2022-12-18T00:07:58;1004.01;;;-8.39;100
75089;BME280;63673;49.928;8.150;2022-12-18T00:09:00;1003.96;;;-8.42;100
75089;BME280;63673;49.928;8.150;2022-12-18T00:10:02;1003.9;;;-8.44;100
75089;BME280;63673;49.928;8.150;2022-12-18T00:11:04;1003.89;;;-8.48;100
75089;BME280;63673;49.928;8.150;2022-12-18T00:12:05;1003.95;;;-8.49;100
75089;BME280;63673;49.928;8.150;2022-12-18T00:13:07;1003.93;;;-8.52;100
75089;BME280;63673;49.928;8.150;2022-12-18T00:14:09;1003.99;;;-8.54;100
75089;BME280;63673;49.928;8.150;2022-12-18T00:15:10;1003.93;;;-8.57;100
75089;BME280;63673;49.928;8.150;2022-12-18T00:16:13;1003.95;;;-8.58;100
75089;BME280;63673;49.928;8.150;2022-12-18T00:17:14;1003.86;;;-8.61;100
75089;BME280;63673;49.928;8.150;2022-12-18T00:18:16;1003.95;;;-8.65;100
75089;BME280;63673;49.928;8.150;2022-12-18T00:19:17;1003.93;;;-8.66;100
75089;BME280;63673;49.928;8.150;2022-12-18T00:20:19;1003.88;;;-8.69;100
75089;BME280;63673;49.928;8.150;2022-12-18T00:21:21;1003.89;;;-8.7;100
75089;BME280;63673;49.928;8.150;2022-12-18T00:22:23;1003.92;;;-8.71;100
75089;BME280;63673;49.928;8.150;2022-12-18T00:23:24;1003.91;;;-8.74;100
75089;BME280;63673;49.928;8.150;2022-12-18T00:24:26;1003.8;;;-8.75;100
75089;BME280;63673;49.928;8.150;2022-12-18T00:25:28;1003.87;;;-8.79;100
75089;BME280;63673;49.928;8.150;2022-12-18T00:26:30;1003.89;;;-8.82;100
75089;BME280;63673;49.928;8.150;2022-12-18T00:27:31;1003.85;;;-8.84;100
75089;BME280;63673;49.928;8.150;2022-12-18T00:28:33;1003.84;;;-8.85;100
75089;BME280;63673;49.928;8.150;2022-12-18T00:29:35;1003.88;;;-8.87;100
75089;BME280;63673;49.928;8.150;2022-12-18T00:30:36;1003.83;;;-8.87;100
75089;BME280;63673;49.928;8.150;2022-12-18T00:31:39;1003.87;;;-8.9;100
75089;BME280;63673;49.928;8.150;2022-12-18T00:32:40;1004.01;;;-8.93;100
75089;BME280;63673;49.928;8.150;2022-12-18T00:33:42;1003.85;;;-8.95;100
75089;BME280;63673;49.928;8.150;2022-12-18T00:34:43;1004.05;;;-8.97;100
75089;BME280;63673;49.928;8.150;2022-12-18T00:35:45;1004.08;;;-8.99;100
75089;BME280;63673;49.928;8.150;2022-12-18T00:36:47;1004.07;;;-8.99;100
75089;BME280;63673;49.928;8.150;2022-12-18T00:37:49;1004.04;;;-9.03;100
75089;BME280;63673;49.928;8.150;2022-12-18T00:38:51;1004.01;;;-9.05;100
75089;BME280;63673;49.928;8.150;2022-12-18T00:39:52;1004.11;;;-9.08;100
75089;BME280;63673;49.928;8.150;2022-12-18T00:40:54;1004.03;;;-9.1;100
75089;BME280;63673;49.928;8.150;2022-12-18T00:41:56;1004.05;;;-9.1;100
75089;BME280;63673;49.928;8.150;2022-12-18T00:42:57;1004;;;-9.14;100
75089;BME280;63673;49.928;8.150;2022-12-18T00:43:59;1004.07;;;-9.14;100
75089;BME280;63673;49.928;8.150;2022-12-18T00:45:01;1003.88;;;-9.17;100
75089;BME280;63673;49.928;8.150;2022-12-18T00:46:03;1004.03;;;-9.21;100
75089;BME280;63673;49.928;8.150;2022-12-18T00:47:04;1004.05;;;-9.22;100
75089;BME280;63673;49.928;8.150;2022-12-18T00:48:06;1004.04;;;-9.24;100
75089;BME280;63673;49.928;8.150;2022-12-18T00:49:08;1003.95;;;-9.25;100
75089;BME280;63673;49.928;8.150;2022-12-18T00:50:09;1004.04;;;-9.23;100
75089;BME280;63673;49.928;8.150;2022-12-18T00:51:11;1003.91;;;-9.26;100
75089;BME280;63673;49.928;8.150;2022-12-18T00:52:13;1003.97;;;-9.27;100
75089;BME280;63673;49.928;8.150;2022-12-18T00:53:15;1003.98;;;-9.29;100
75089;BME280;63673;49.928;8.150;2022-12-18T00:54:16;1003.97;;;-9.3;100
75089;BME280;63673;49.928;8.150;2022-12-18T00:55:18;1004;;;-9.31;100
75089;BME280;63673;49.928;8.150;2022-12-18T00:56:20;1004.08;;;-9.33;100
75089;BME280;63673;49.928;8.150;2022-12-18T00:57:22;1004.03;;;-9.32;100
75089;BME280;63673;49.928;8.150;2022-12-18T00:58:23;1004.06;;;-9.33;100
75089;BME280;63673;49.928;8.150;2022-12-18T00:59:25;1004.06;;;-9.35;100
75089;BME280;63673;49.928;8.150;2022-12-18T01:00:27;1004.12;;;-9.38;100
75089;BME280;63673;49.928;8.150;2022-12-18T01:01:28;1004.11;;;-9.39;100
75089;BME280;63673;49.928;8.150;2022-12-18T01:02:30;1004.03;;;-9.37;100
75089;BME280;63673;49.928;8.150;2022-12-18T01:03:32;1004.03;;;-9.39;100
75089;BME280;63673;49.928;8.150;2022-12-18T01:04:34;1004.06;;;-9.38;100
75089;BME280;63673;49.928;8.150;2022-12-18T01:05:38;1004.07;;;-9.41;100
75089;BME280;63673;49.928;8.150;2022-12-18T01:06:37;1004.19;;;-9.43;100
75089;BME280;63673;49.928;8.150;2022-12-18T01:07:39;1004.15;;;-9.41;100
75089;BME280;63673;49.928;8.150;2022-12-18T01:08:41;1004.11;;;-9.43;100
75089;BME280;63673;49.928;8.150;2022-12-18T01:09:42;1004.05;;;-9.45;100
75089;BME280;63673;49.928;8.150;2022-12-18T01:10:44;1004.13;;;-9.45;100
75089;BME280;63673;49.928;8.150;2022-12-18T01:11:46;1004.2;;;-9.45;100
75089;BME280;63673;49.928;8.150;2022-12-18T01:12:48;1004.09;;;-9.48;100
75089;BME280;63673;49.928;8.150;2022-12-18T01:13:50;1004.19;;;-9.5;100
75089;BME280;63673;49.928;8.150;2022-12-18T01:14:51;1004.16;;;-9.5;100
75089;BME280;63673;49.928;8.150;2022-12-18T01:15:53;1004.13;;;-9.52;100
75089;BME280;63673;49.928;8.150;2022-12-18T01:16:55;1004.08;;;-9.51;100
75089;BME280;63673;49.928;8.150;2022-12-18T01:17:56;1004.1;;;-9.53;100
75089;BME280;63673;49.928;8.150;2022-12-18T01:18:58;1004.05;;;-9.52;100
75089;BME280;63673;49.928;8.150;2022-12-18T01:20:00;1003.96;;;-9.53;100
75089;BME280;63673;49.928;8.150;2022-12-18T01:21:05;1003.97;;;-9.55;100
75089;BME280;63673;49.928;8.150;2022-12-18T01:22:03;1004.12;;;-9.55;100
75089;BME280;63673;49.928;8.150;2022-12-18T01:23:05;1004.01;;;-9.57;100
75089;BME280;63673;49.928;8.150;2022-12-18T01:24:07;1004.16;;;-9.58;100
75089;BME280;63673;49.928;8.150;2022-12-18T01:25:08;1004.28;;;-9.58;100
75089;BME280;63673;49.928;8.150;2022-12-18T01:26:11;1004.12;;;-9.61;100
75089;BME280;63673;49.928;8.150;2022-12-18T01:27:12;1004.2;;;-9.63;100
75089;BME280;63673;49.928;8.150;2022-12-18T01:28:14;1004.2;;;-9.65;100
75089;BME280;63673;49.928;8.150;2022-12-18T01:29:15;1004.13;;;-9.65;100
75089;BME280;63673;49.928;8.150;2022-12-18T01:30:18;1004.16;;;-9.65;100
75089;BME280;63673;49.928;8.150;2022-12-18T01:31:23;1004.16;;;-9.66;100
75089;BME280;63673;49.928;8.150;2022-12-18T01:32:21;1004.13;;;-9.64;100
75089;BME280;63673;49.928;8.150;2022-12-18T01:33:22;1004.21;;;-9.66;100
75089;BME280;63673;49.928;8.150;2022-12-18T01:34:24;1004.18;;;-9.69;100
75089;BME280;63673;49.928;8.150;2022-12-18T01:35:26;1004.28;;;-9.7;100
75089;BME280;63673;49.928;8.150;2022-12-18T01:36:28;1004.28;;;-9.71;100
75089;BME280;63673;49.928;8.150;2022-12-18T01:37:29;1004.26;;;-9.72;100
75089;BME280;63673;49.928;8.150;2022-12-18T01:38:31;1004.26;;;-9.72;100
75089;BME280;63673;49.928;8.150;2022-12-18T01:39:33;1004.3;;;-9.72;100
75089;BME280;63673;49.928;8.150;2022-12-18T01:40:34;1004.3;;;-9.74;100
75089;BME280;63673;49.928;8.150;2022-12-18T01:41:37;1004.43;;;-9.73;100
75089;BME280;63673;49.928;8.150;2022-12-18T01:42:38;1004.36;;;-9.75;100
75089;BME280;63673;49.928;8.150;2022-12-18T01:43:41;1004.49;;;-9.77;100
75089;BME280;63673;49.928;8.150;2022-12-18T01:44:58;1004.54;;;-9.76;100
75089;BME280;63673;49.928;8.150;2022-12-18T01:45:43;1004.48;;;-9.76;100
75089;BME280;63673;49.928;8.150;2022-12-18T01:46:45;1004.42;;;-9.77;100
75089;BME280;63673;49.928;8.150;2022-12-18T01:47:47;1004.39;;;-9.77;100
75089;BME280;63673;49.928;8.150;2022-12-18T01:48:49;1004.37;;;-9.77;100
75089;BME280;63673;49.928;8.150;2022-12-18T01:49:50;1004.39;;;-9.77;100
75089;BME280;63673;49.928;8.150;2022-12-18T01:50:52;1004.31;;;-9.78;100
75089;BME280;63673;49.928;8.150;2022-12-18T01:51:53;1004.43;;;-9.74;100
75089;BME280;63673;49.928;8.150;2022-12-18T01:52:56;1004.39;;;-9.71;100
75089;BME280;63673;49.928;8.150;2022-12-18T01:53:57;1004.34;;;-9.68;100
75089;BME280;63673;49.928;8.150;2022-12-18T01:54:59;1004.3;;;-9.68;100
75089;BME280;63673;49.928;8.150;2022-12-18T01:56:00;1004.25;;;-9.62;100
75089;BME280;63673;49.928;8.150;2022-12-18T01:57:02;1004.28;;;-9.6;100
75089;BME280;63673;49.928;8.150;2022-12-18T01:58:04;1004.22;;;-9.57;100
75089;BME280;63673;49.928;8.150;2022-12-18T01:59:06;1004.25;;;-9.55;100
75089;BME280;63673;49.928;8.150;2022-12-18T02:00:08;1004.08;;;-9.49;100
75089;BME280;63673;49.928;8.150;2022-12-18T02:01:09;1004.13;;;-9.47;100
75089;BME280;63673;49.928;8.150;2022-12-18T02:02:11;1004.12;;;-9.46;100
75089;BME280;63673;49.928;8.150;2022-12-18T02:03:12;1004.16;;;-9.44;100
75089;BME280;63673;49.928;8.150;2022-12-18T02:04:18;1004.19;;;-9.42;100
75089;BME280;63673;49.928;8.150;2022-12-18T02:05:17;1004.23;;;-9.4;100
75089;BME280;63673;49.928;8.150;2022-12-18T02:06:19;1004.21;;;-9.39;100
75089;BME280;63673;49.928;8.150;2022-12-18T02:07:20;1004.22;;;-9.33;100
75089;BME280;63673;49.928;8.150;2022-12-18T02:08:22;1004.2;;;-9.33;100
75089;BME280;63673;49.928;8.150;2022-12-18T02:09:24;1004.17;;;-9.33;100
75089;BME280;63673;49.928;8.150;2022-12-18T02:10:26;1004.17;;;-9.31;100
75089;BME280;63673;49.928;8.150;2022-12-18T02:11:30;1004.06;;;-9.28;100
75089;BME280;63673;49.928;8.150;2022-12-18T02:12:29;1004.12;;;-9.25;100
75089;BME280;63673;49.928;8.150;2022-12-18T02:13:32;1004.06;;;-9.26;100
75089;BME280;63673;49.928;8.150;2022-12-18T02:14:33;1004.08;;;-9.22;100
75089;BME280;63673;49.928;8.150;2022-12-18T02:15:35;1004.08;;;-9.24;100
75089;BME280;63673;49.928;8.150;2022-12-18T02:16:37;1004.09;;;-9.23;100
75089;BME280;63673;49.928;8.150;2022-12-18T02:17:37;1004.13;;;-9.2;100
75089;BME280;63673;49.928;8.150;2022-12-18T02:18:40;1004.19;;;-9.21;100
75089;BME280;63673;49.928;8.150;2022-12-18T02:19:44;1004.18;;;-9.21;100
75089;BME280;63673;49.928;8.150;2022-12-18T02:20:43;1004.2;;;-9.19;100
75089;BME280;63673;49.928;8.150;2022-12-18T02:21:45;1004.09;;;-9.2;100
75089;BME280;63673;49.928;8.150;2022-12-18T02:22:49;1004;;;-9.21;100
75089;BME280;63673;49.928;8.150;2022-12-18T02:23:49;1004.03;;;-9.18;100
75089;BME280;63673;49.928;8.150;2022-12-18T02:24:51;1004.06;;;-9.19;100
75089;BME280;63673;49.928;8.150;2022-12-18T02:26:07;1003.99;;;-9.2;100
75089;BME280;63673;49.928;8.150;2022-12-18T02:26:53;1003.97;;;-9.21;100
75089;BME280;63673;49.928;8.150;2022-12-18T02:27:54;1004.05;;;-9.22;100
75089;BME280;63673;49.928;8.150;2022-12-18T02:28:56;1003.84;;;-9.24;100
75089;BME280;63673;49.928;8.150;2022-12-18T02:29:58;1003.95;;;-9.25;100
75089;BME280;63673;49.928;8.150;2022-12-18T02:31:00;1003.98;;;-9.26;100
75089;BME280;63673;49.928;8.150;2022-12-18T02:32:02;1004.02;;;-9.28;100
75089;BME280;63673;49.928;8.150;2022-12-18T02:33:04;1003.98;;;-9.27;100
75089;BME280;63673;49.928;8.150;2022-12-18T02:34:05;1004.04;;;-9.27;100
75089;BME280;63673;49.928;8.150;2022-12-18T02:35:09;1003.91;;;-9.28;100
75089;BME280;63673;49.928;8.150;2022-12-18T02:36:08;1003.95;;;-9.3;100
75089;BME280;63673;49.928;8.150;2022-12-18T02:37:10;1004.12;;;-9.3;100
75089;BME280;63673;49.928;8.150;2022-12-18T02:38:12;1004.08;;;-9.31;100
75089;BME280;63673;49.928;8.150;2022-12-18T02:39:13;1004.06;;;-9.31;100
75089;BME280;63673;49.928;8.150;2022-12-18T02:40:15;1003.88;;;-9.33;100
75089;BME280;63673;49.928;8.150;2022-12-18T02:41:17;1003.94;;;-9.33;100
75089;BME280;63673;49.928;8.150;2022-12-18T02:42:19;1003.88;;;-9.34;100
75089;BME280;63673;49.928;8.150;2022-12-18T02:43:20;1003.86;;;-9.34;100
75089;BME280;63673;49.928;8.150;2022-12-18T02:44:22;1003.85;;;-9.34;100
75089;BME280;63673;49.928;8.150;2022-12-18T02:45:24;1003.92;;;-9.36;100
75089;BME280;63673;49.928;8.150;2022-12-18T02:46:27;1003.98;;;-9.36;100
75089;BME280;63673;49.928;8.150;2022-12-18T02:47:28;1003.94;;;-9.35;100
75089;BME280;63673;49.928;8.150;2022-12-18T02:48:31;1003.99;;;-9.33;100
75089;BME280;63673;49.928;8.150;2022-12-18T02:49:32;1003.95;;;-9.33;100
75089;BME280;63673;49.928;8.150;2022-12-18T02:50:34;1004;;;-9.31;100
75089;BME280;63673;49.928;8.150;2022-12-18T02:51:36;1003.9;;;-9.33;100
75089;BME280;63673;49.928;8.150;2022-12-18T02:52:38;1003.95;;;-9.27;100
75089;BME280;63673;49.928;8.150;2022-12-18T02:53:38;1003.91;;;-9.28;100
75089;BME280;63673;49.928;8.150;2022-12-18T02:54:45;1003.92;;;-9.27;100
75089;BME280;63673;49.928;8.150;2022-12-18T02:55:44;1004.02;;;-9.26;100
75089;BME280;63673;49.928;8.150;2022-12-18T02:56:44;1004.03;;;-9.25;100
75089;BME280;63673;49.928;8.150;2022-12-18T02:57:45;1003.97;;;-9.26;100
75089;BME280;63673;49.928;8.150;2022-12-18T02:58:47;1004.02;;;-9.25;100
75089;BME280;63673;49.928;8.150;2022-12-18T02:59:50;1004;;;-9.21;100
75089;BME280;63673;49.928;8.150;2022-12-18T03:00:51;1003.97;;;-9.2;100
75089;BME280;63673;49.928;8.150;2022-12-18T03:01:52;1003.99;;;-9.19;100
75089;BME280;63673;49.928;8.150;2022-12-18T03:02:54;1003.94;;;-9.18;100
75089;BME280;63673;49.928;8.150;2022-12-18T03:03:55;1003.95;;;-9.17;100
75089;BME280;63673;49.928;8.150;2022-12-18T03:04:58;1003.93;;;-9.18;100
75089;BME280;63673;49.928;8.150;2022-12-18T03:06:00;1003.97;;;-9.17;100
75089;BME280;63673;49.928;8.150;2022-12-18T03:07:01;1003.9;;;-9.17;100
75089;BME280;63673;49.928;8.150;2022-12-18T03:08:02;1003.97;;;-9.16;100
75089;BME280;63673;49.928;8.150;2022-12-18T03:09:04;1004.03;;;-9.15;100
75089;BME280;63673;49.928;8.150;2022-12-18T03:10:06;1004.02;;;-9.13;100
75089;BME280;63673;49.928;8.150;2022-12-18T03:11:07;1004;;;-9.14;100
75089;BME280;63673;49.928;8.150;2022-12-18T03:12:10;1003.87;;;-9.12;100
75089;BME280;63673;49.928;8.150;2022-12-18T03:13:12;1003.96;;;-9.12;100
75089;BME280;63673;49.928;8.150;2022-12-18T03:14:12;1004;;;-9.13;100
75089;BME280;63673;49.928;8.150;2022-12-18T03:15:14;1003.92;;;-9.09;100
75089;BME280;63673;49.928;8.150;2022-12-18T03:16:17;1003.94;;;-9.09;100
75089;BME280;63673;49.928;8.150;2022-12-18T03:17:17;1003.85;;;-9.08;100
75089;BME280;63673;49.928;8.150;2022-12-18T03:18:20;1004;;;-9.07;100
75089;BME280;63673;49.928;8.150;2022-12-18T03:19:21;1003.95;;;-9.06;100
75089;BME280;63673;49.928;8.150;2022-12-18T03:20:23;1003.85;;;-9.07;100
75089;BME280;63673;49.928;8.150;2022-12-18T03:21:26;1003.97;;;-9.05;100
75089;BME280;63673;49.928;8.150;2022-12-18T03:22:26;1003.98;;;-9.05;100
75089;BME280;63673;49.928;8.150;2022-12-18T03:23:29;1003.89;;;-9.05;100
75089;BME280;63673;49.928;8.150;2022-12-18T03:24:30;1003.85;;;-9.02;100
75089;BME280;63673;49.928;8.150;2022-12-18T03:25:31;1003.84;;;-9.03;100
75089;BME280;63673;49.928;8.150;2022-12-18T03:26:33;1003.83;;;-9.02;100
75089;BME280;63673;49.928;8.150;2022-12-18T03:27:35;1003.95;;;-9.01;100
75089;BME280;63673;49.928;8.150;2022-12-18T03:28:37;1003.87;;;-9.01;100
75089;BME280;63673;49.928;8.150;2022-12-18T03:29:38;1003.91;;;-8.98;100
75089;BME280;63673;49.928;8.150;2022-12-18T03:30:40;1003.87;;;-9;100
75089;BME280;63673;49.928;8.150;2022-12-18T03:31:42;1003.87;;;-8.97;100
75089;BME280;63673;49.928;8.150;2022-12-18T03:32:44;1003.75;;;-8.97;100
75089;BME280;63673;49.928;8.150;2022-12-18T03:33:45;1003.7;;;-8.96;100
75089;BME280;63673;49.928;8.150;2022-12-18T03:34:47;1003.71;;;-8.92;100
75089;BME280;63673;49.928;8.150;2022-12-18T03:35:49;1003.7;;;-8.89;100
75089;BME280;63673;49.928;8.150;2022-12-18T03:36:50;1003.7;;;-8.86;100
75089;BME280;63673;49.928;8.150;2022-12-18T03:37:52;1003.7;;;-8.82;100
75089;BME280;63673;49.928;8.150;2022-12-18T03:38:54;1003.71;;;-8.81;100
75089;BME280;63673;49.928;8.150;2022-12-18T03:39:55;1003.69;;;-8.75;100
75089;BME280;63673;49.928;8.150;2022-12-18T03:40:59;1003.79;;;-8.75;100
75089;BME280;63673;49.928;8.150;2022-12-18T03:42:00;1003.82;;;-8.72;100
75089;BME280;63673;49.928;8.150;2022-12-18T03:43:02;1003.94;;;-8.68;100
75089;BME280;63673;49.928;8.150;2022-12-18T03:44:03;1003.9;;;-8.64;100
75089;BME280;63673;49.928;8.150;2022-12-18T03:45:06;1003.86;;;-8.6;100
75089;BME280;63673;49.928;8.150;2022-12-18T03:46:07;1003.79;;;-8.6;100
75089;BME280;63673;49.928;8.150;2022-12-18T03:47:09;1003.92;;;-8.59;100
75089;BME280;63673;49.928;8.150;2022-12-18T03:48:12;1003.87;;;-8.55;100
75089;BME280;63673;49.928;8.150;2022-12-18T03:49:12;1003.81;;;-8.51;100
75089;BME280;63673;49.928;8.150;2022-12-18T03:50:14;1003.8;;;-8.52;100
75089;BME280;63673;49.928;8.150;2022-12-18T03:51:16;1003.7;;;-8.48;100
75089;BME280;63673;49.928;8.150;2022-12-18T03:52:17;1003.69;;;-8.46;100
75089;BME280;63673;49.928;8.150;2022-12-18T03:53:20;1003.72;;;-8.47;100
75089;BME280;63673;49.928;8.150;2022-12-18T03:54:20;1003.81;;;-8.45;100
75089;BME280;63673;49.928;8.150;2022-12-18T03:55:21;1003.81;;;-8.43;100
75089;BME280;63673;49.928;8.150;2022-12-18T03:56:23;1003.91;;;-8.43;100
75089;BME280;63673;49.928;8.150;2022-12-18T03:57:25;1003.95;;;-8.43;100
75089;BME280;63673;49.928;8.150;2022-12-18T03:58:27;1003.92;;;-8.42;100
75089;BME280;63673;49.928;8.150;2022-12-18T03:59:28;1003.94;;;-8.41;100
75089;BME280;63673;49.928;8.150;2022-12-18T04:00:30;1003.86;;;-8.42;100
75089;BME280;63673;49.928;8.150;2022-12-18T04:01:32;1003.83;;;-8.41;100
75089;BME280;63673;49.928;8.150;2022-12-18T04:02:34;1003.92;;;-8.4;100
75089;BME280;63673;49.928;8.150;2022-12-18T04:03:35;1003.81;;;-8.43;100
75089;BME280;63673;49.928;8.150;2022-12-18T04:04:37;1003.86;;;-8.42;100
75089;BME280;63673;49.928;8.150;2022-12-18T04:05:39;1003.91;;;-8.41;100
75089;BME280;63673;49.928;8.150;2022-12-18T04:06:41;1003.84;;;-8.41;100
75089;BME280;63673;49.928;8.150;2022-12-18T04:07:42;1003.78;;;-8.44;100
75089;BME280;63673;49.928;8.150;2022-12-18T04:08:44;1003.85;;;-8.45;100
75089;BME280;63673;49.928;8.150;2022-12-18T04:09:47;1003.84;;;-8.43;100
75089;BME280;63673;49.928;8.150;2022-12-18T04:10:47;1003.78;;;-8.43;100
75089;BME280;63673;49.928;8.150;2022-12-18T04:11:49;1003.8;;;-8.44;100
75089;BME280;63673;49.928;8.150;2022-12-18T04:12:51;1003.78;;;-8.44;100
75089;BME280;63673;49.928;8.150;2022-12-18T04:13:55;1003.77;;;-8.47;100
75089;BME280;63673;49.928;8.150;2022-12-18T04:14:54;1003.51;;;-8.46;100
75089;BME280;63673;49.928;8.150;2022-12-18T04:15:56;1003.68;;;-8.47;100
75089;BME280;63673;49.928;8.150;2022-12-18T04:16:58;1003.62;;;-8.5;100
75089;BME280;63673;49.928;8.150;2022-12-18T04:18:00;1003.7;;;-8.51;100
75089;BME280;63673;49.928;8.150;2022-12-18T04:19:01;1003.7;;;-8.5;100
75089;BME280;63673;49.928;8.150;2022-12-18T04:20:03;1003.71;;;-8.51;100
75089;BME280;63673;49.928;8.150;2022-12-18T04:21:05;1003.67;;;-8.54;100
75089;BME280;63673;49.928;8.150;2022-12-18T04:22:08;1003.74;;;-8.54;100
75089;BME280;63673;49.928;8.150;2022-12-18T04:23:08;1003.61;;;-8.54;100
75089;BME280;63673;49.928;8.150;2022-12-18T04:24:10;1003.77;;;-8.57;100
75089;BME280;63673;49.928;8.150;2022-12-18T04:25:12;1003.68;;;-8.59;100
75089;BME280;63673;49.928;8.150;2022-12-18T04:26:13;1003.77;;;-8.6;100
75089;BME280;63673;49.928;8.150;2022-12-18T04:27:15;1003.72;;;-8.57;100
75089;BME280;63673;49.928;8.150;2022-12-18T04:28:17;1003.7;;;-8.61;100
75089;BME280;63673;49.928;8.150;2022-12-18T04:29:19;1003.76;;;-8.62;100
75089;BME280;63673;49.928;8.150;2022-12-18T04:30:20;1003.74;;;-8.62;100
75089;BME280;63673;49.928;8.150;2022-12-18T04:31:22;1003.75;;;-8.61;100
75089;BME280;63673;49.928;8.150;2022-12-18T04:32:24;1003.74;;;-8.6;100
75089;BME280;63673;49.928;8.150;2022-12-18T04:33:26;1003.63;;;-8.62;100
75089;BME280;63673;49.928;8.150;2022-12-18T04:34:27;1003.6;;;-8.61;100
75089;BME280;63673;49.928;8.150;2022-12-18T04:35:29;1003.59;;;-8.59;100
75089;BME280;63673;49.928;8.150;2022-12-18T04:36:31;1003.51;;;-8.61;100
75089;BME280;63673;49.928;8.150;2022-12-18T04:37:33;1003.58;;;-8.6;100
75089;BME280;63673;49.928;8.150;2022-12-18T04:38:34;1003.62;;;-8.56;100
75089;BME280;63673;49.928;8.150;2022-12-18T04:39:36;1003.63;;;-8.53;100
75089;BME280;63673;49.928;8.150;2022-12-18T04:40:38;1003.58;;;-8.54;100
75089;BME280;63673;49.928;8.150;2022-12-18T04:41:39;1003.62;;;-8.5;100
75089;BME280;63673;49.928;8.150;2022-12-18T04:42:41;1003.63;;;-8.5;100
75089;BME280;63673;49.928;8.150;2022-12-18T04:43:43;1003.66;;;-8.49;100
75089;BME280;63673;49.928;8.150;2022-12-18T04:44:45;1003.68;;;-8.48;100
75089;BME280;63673;49.928;8.150;2022-12-18T04:45:46;1003.7;;;-8.46;100
75089;BME280;63673;49.928;8.150;2022-12-18T04:46:48;1003.53;;;-8.44;100
75089;BME280;63673;49.928;8.150;2022-12-18T04:47:50;1003.65;;;-8.44;100
75089;BME280;63673;49.928;8.150;2022-12-18T04:48:52;1003.75;;;-8.44;100
75089;BME280;63673;49.928;8.150;2022-12-18T04:49:53;1003.77;;;-8.42;100
75089;BME280;63673;49.928;8.150;2022-12-18T04:50:55;1003.7;;;-8.41;100
75089;BME280;63673;49.928;8.150;2022-12-18T04:51:57;1003.83;;;-8.43;100
75089;BME280;63673;49.928;8.150;2022-12-18T04:52:59;1003.77;;;-8.42;100
75089;BME280;63673;49.928;8.150;2022-12-18T04:54:00;1003.73;;;-8.44;100
75089;BME280;63673;49.928;8.150;2022-12-18T04:55:02;1003.76;;;-8.43;100
75089;BME280;63673;49.928;8.150;2022-12-18T04:56:05;1003.74;;;-8.43;100
75089;BME280;63673;49.928;8.150;2022-12-18T04:57:05;1003.7;;;-8.46;100
75089;BME280;63673;49.928;8.150;2022-12-18T04:58:07;1003.82;;;-8.44;100
75089;BME280;63673;49.928;8.150;2022-12-18T04:59:09;1003.75;;;-8.46;100
75089;BME280;63673;49.928;8.150;2022-12-18T05:00:11;1003.84;;;-8.46;100
75089;BME280;63673;49.928;8.150;2022-12-18T05:01:13;1003.83;;;-8.44;100
75089;BME280;63673;49.928;8.150;2022-12-18T05:02:14;1003.89;;;-8.44;100
75089;BME280;63673;49.928;8.150;2022-12-18T05:03:16;1003.87;;;-8.47;100
75089;BME280;63673;49.928;8.150;2022-12-18T05:04:18;1003.93;;;-8.48;100
75089;BME280;63673;49.928;8.150;2022-12-18T05:05:19;1003.98;;;-8.5;100
75089;BME280;63673;49.928;8.150;2022-12-18T05:06:21;1003.97;;;-8.5;100
75089;BME280;63673;49.928;8.150;2022-12-18T05:07:23;1003.98;;;-8.52;100
75089;BME280;63673;49.928;8.150;2022-12-18T05:08:25;1003.96;;;-8.51;100
75089;BME280;63673;49.928;8.150;2022-12-18T05:09:26;1004.04;;;-8.51;100
75089;BME280;63673;49.928;8.150;2022-12-18T05:10:28;1003.95;;;-8.53;100
75089;BME280;63673;49.928;8.150;2022-12-18T05:11:30;1003.9;;;-8.55;100
75089;BME280;63673;49.928;8.150;2022-12-18T05:12:31;1003.99;;;-8.54;100
75089;BME280;63673;49.928;8.150;2022-12-18T05:13:33;1004.01;;;-8.57;100
75089;BME280;63673;49.928;8.150;2022-12-18T05:14:35;1003.99;;;-8.57;100
75089;BME280;63673;49.928;8.150;2022-12-18T05:15:37;1003.91;;;-8.58;100
75089;BME280;63673;49.928;8.150;2022-12-18T05:16:38;1004.01;;;-8.57;100
75089;BME280;63673;49.928;8.150;2022-12-18T05:17:40;1003.93;;;-8.58;100
75089;BME280;63673;49.928;8.150;2022-12-18T05:18:42;1003.97;;;-8.6;100
75089;BME280;63673;49.928;8.150;2022-12-18T05:19:44;1003.95;;;-8.61;100
75089;BME280;63673;49.928;8.150;2022-12-18T05:20:45;1003.89;;;-8.62;100
75089;BME280;63673;49.928;8.150;2022-12-18T05:21:47;1003.93;;;-8.62;100
75089;BME280;63673;49.928;8.150;2022-12-18T05:22:49;1003.91;;;-8.61;100
75089;BME280;63673;49.928;8.150;2022-12-18T05:23:51;1003.84;;;-8.64;100
75089;BME280;63673;49.928;8.150;2022-12-18T05:24:52;1003.86;;;-8.65;100
75089;BME280;63673;49.928;8.150;2022-12-18T05:25:55;1003.92;;;-8.66;100
75089;BME280;63673;49.928;8.150;2022-12-18T05:26:56;1003.9;;;-8.65;100
75089;BME280;63673;49.928;8.150;2022-12-18T05:27:57;1003.81;;;-8.69;100
75089;BME280;63673;49.928;8.150;2022-12-18T05:28:59;1003.89;;;-8.69;100
75089;BME280;63673;49.928;8.150;2022-12-18T05:30:01;1003.87;;;-8.69;100
75089;BME280;63673;49.928;8.150;2022-12-18T05:31:03;1003.76;;;-8.71;100
75089;BME280;63673;49.928;8.150;2022-12-18T05:32:04;1003.81;;;-8.72;100
75089;BME280;63673;49.928;8.150;2022-12-18T05:33:06;1003.84;;;-8.73;100
75089;BME280;63673;49.928;8.150;2022-12-18T05:34:08;1003.81;;;-8.72;100
75089;BME280;63673;49.928;8.150;2022-12-18T05:35:10;1003.74;;;-8.73;100
75089;BME280;63673;49.928;8.150;2022-12-18T05:36:11;1003.83;;;-8.74;100
75089;BME280;63673;49.928;8.150;2022-12-18T05:37:13;1003.71;;;-8.76;100
75089;BME280;63673;49.928;8.150;2022-12-18T05:38:15;1003.73;;;-8.75;100
75089;BME280;63673;49.928;8.150;2022-12-18T05:39:17;1003.72;;;-8.76;100
75089;BME280;63673;49.928;8.150;2022-12-18T05:40:18;1003.7;;;-8.76;100
75089;BME280;63673;49.928;8.150;2022-12-18T05:41:20;1003.72;;;-8.77;100
75089;BME280;63673;49.928;8.150;2022-12-18T05:42:22;1003.65;;;-8.79;100